Time;durP1;ratioP1;P1;durP2;ratioP2;P2;SDS_P1;SDS_P2;PMS_P1;PMS_P2;Temp;Humidity;BMP_temperature;BMP_pressure;BME280_temperature;BME280_humidity;BME280_pressure;Samples;Min_cycle;Max_cycle;Signal;HPM_P1;HPM_P2
2024/01/08 00:01:19;;;;;;;37.13;10.13;;;5.60;71.10;;;;;;5052657;28;20080;-67
2024/01/08 00:03:47;;;;;;;32.67;9.15;;;5.50;71.00;;;;;;5040099;28;20057;-66
2024/01/08 00:06:18;;;;;;;24.33;8.55;;;5.50;71.00;;;;;;5046062;28;20494;-66
2024/01/08 00:08:46;;;;;;;31.25;7.95;;;5.50;71.30;;;;;;5053149;28;20056;-67
2024/01/08 00:11:15;;;;;;;23.63;9.43;;;5.50;71.00;;;;;;5048790;28;20056;-67
2024/01/08 00:13:43;;;;;;;32.63;10.77;;;5.50;71.00;;;;;;5046875;28;20082;-67
2024/01/08 00:16:12;;;;;;;24.48;10.00;;;5.50;71.00;;;;;;5054266;28;20064;-67
2024/01/08 00:18:44;;;;;;;28.30;8.48;;;5.40;70.90;;;;;;5052370;28;20087;-69
2024/01/08 00:21:13;;;;;;;24.85;9.20;;;5.40;70.90;;;;;;5054409;28;20056;-70
2024/01/08 00:23:42;;;;;;;19.60;8.02;;;5.50;71.10;;;;;;5048258;28;20144;-70
2024/01/08 00:26:11;;;;;;;34.08;9.80;;;5.50;71.00;;;;;;5045617;28;20140;-69
2024/01/08 00:28:39;;;;;;;69.47;16.10;;;5.50;71.80;;;;;;5054216;28;20060;-69
2024/01/08 00:31:07;;;;;;;33.05;10.75;;;5.50;71.00;;;;;;5058412;28;20064;-70
2024/01/08 00:33:36;;;;;;;53.45;15.90;;;5.50;71.10;;;;;;5044670;28;20053;-68
2024/01/08 00:36:05;;;;;;;24.98;9.10;;;5.50;71.00;;;;;;5045950;28;20498;-69
2024/01/08 00:38:33;;;;;;;61.05;14.35;;;5.50;71.10;;;;;;5055665;28;20062;-69
2024/01/08 00:41:04;;;;;;;28.20;9.13;;;5.50;71.00;;;;;;5059196;28;20052;-67
2024/01/08 00:43:33;;;;;;;28.80;10.18;;;5.50;71.00;;;;;;5058130;28;20048;-69
2024/01/08 00:46:01;;;;;;;31.38;9.48;;;5.60;71.00;;;;;;5050913;28;20105;-69
2024/01/08 00:48:29;;;;;;;18.15;7.70;;;5.60;71.00;;;;;;5055521;28;20055;-69
2024/01/08 00:50:58;;;;;;;35.40;8.88;;;5.60;70.90;;;;;;5054083;28;20061;-68
2024/01/08 00:53:26;;;;;;;30.83;10.35;;;5.50;70.90;;;;;;5053958;28;20044;-68
2024/01/08 00:55:54;;;;;;;25.02;9.13;;;5.50;71.70;;;;;;5048541;28;20139;-68
2024/01/08 00:58:24;;;;;;;23.27;9.02;;;5.50;70.90;;;;;;5058035;28;20114;-69
2024/01/08 01:00:52;;;;;;;25.25;9.23;;;5.50;70.90;;;;;;5052459;28;20062;-68
2024/01/08 01:03:20;;;;;;;33.03;10.85;;;5.60;71.00;;;;;;5053355;28;20060;-69
2024/01/08 01:05:49;;;;;;;24.45;10.40;;;5.60;70.90;;;;;;5041577;28;20044;-69
2024/01/08 01:08:17;;;;;;;30.35;9.15;;;5.60;70.80;;;;;;5057091;28;20051;-69
2024/01/08 01:10:45;;;;;;;24.63;8.73;;;5.60;70.70;;;;;;5045085;28;20079;-69
2024/01/08 01:13:14;;;;;;;36.00;12.77;;;5.60;70.70;;;;;;5049920;28;20059;-69
2024/01/08 01:15:44;;;;;;;30.92;11.60;;;5.50;70.70;;;;;;5040217;28;20045;-70
2024/01/08 01:18:12;;;;;;;26.55;9.15;;;5.50;70.70;;;;;;5042704;28;20080;-68
2024/01/08 01:20:41;;;;;;;25.30;9.52;;;5.50;70.60;;;;;;5046561;28;20059;-69
2024/01/08 01:23:09;;;;;;;40.53;11.73;;;5.50;70.60;;;;;;5053288;28;20450;-69
2024/01/08 01:25:38;;;;;;;30.70;9.02;;;5.50;70.60;;;;;;5054337;28;20060;-69
2024/01/08 01:28:07;;;;;;;30.48;12.35;;;5.60;70.60;;;;;;5054207;28;20417;-68
2024/01/08 01:30:36;;;;;;;29.50;10.80;;;5.50;70.50;;;;;;5046287;28;20057;-70
2024/01/08 01:33:06;;;;;;;27.80;9.95;;;5.50;70.50;;;;;;5052286;28;20125;-70
2024/01/08 01:35:34;;;;;;;24.30;8.85;;;5.50;70.60;;;;;;5054581;28;20057;-69
2024/01/08 01:38:03;;;;;;;15.35;7.30;;;5.50;70.60;;;;;;5040594;28;20058;-70
2024/01/08 01:40:31;;;;;;;26.73;7.40;;;5.50;70.60;;;;;;5044671;28;20558;-69
2024/01/08 01:42:59;;;;;;;22.10;9.90;;;5.50;70.60;;;;;;5046149;28;20129;-68
2024/01/08 01:45:28;;;;;;;22.17;8.25;;;5.50;70.50;;;;;;5050338;28;20425;-67
2024/01/08 01:47:56;;;;;;;27.98;10.75;;;5.50;71.30;;;;;;5050281;28;20722;-69
2024/01/08 01:50:26;;;;;;;25.13;9.57;;;5.50;70.40;;;;;;5052286;28;20561;-69
2024/01/08 01:52:55;;;;;;;28.05;9.43;;;5.50;71.10;;;;;;5056008;28;20071;-69
2024/01/08 01:55:23;;;;;;;33.78;10.02;;;5.50;70.30;;;;;;5049601;28;20060;-69
2024/01/08 01:57:51;;;;;;;26.58;8.60;;;5.50;70.20;;;;;;5044858;28;20067;-70
2024/01/08 02:00:20;;;;;;;37.95;8.65;;;5.50;70.20;;;;;;5052773;28;20068;-70
2024/01/08 02:02:48;;;;;;;36.10;12.07;;;5.50;70.30;;;;;;5050185;28;20067;-70
2024/01/08 02:05:18;;;;;;;35.55;11.68;;;5.50;70.20;;;;;;5050020;28;20060;-70
2024/01/08 02:07:49;;;;;;;45.28;11.43;;;5.40;70.20;;;;;;5050820;28;20065;-70
2024/01/08 02:10:18;;;;;;;30.08;11.55;;;5.40;71.00;;;;;;5051555;28;20060;-70
2024/01/08 02:12:46;;;;;;;34.00;11.93;;;5.40;70.20;;;;;;5053988;28;20449;-70
2024/01/08 02:15:15;;;;;;;27.08;8.18;;;5.40;70.20;;;;;;5054745;28;20044;-70
2024/01/08 02:17:43;;;;;;;24.58;8.68;;;5.50;70.30;;;;;;5035416;28;20055;-71
2024/01/08 02:20:11;;;;;;;32.67;8.65;;;5.50;70.30;;;;;;5043250;28;20380;-71
2024/01/08 02:22:42;;;;;;;27.02;8.50;;;5.50;70.20;;;;;;5059000;28;20052;-69
2024/01/08 02:25:11;;;;;;;31.90;9.82;;;5.50;70.10;;;;;;5050815;28;20048;-70
2024/01/08 02:27:39;;;;;;;25.55;11.48;;;5.40;69.90;;;;;;5050060;28;20060;-69
2024/01/08 02:30:08;;;;;;;23.08;9.38;;;5.40;70.00;;;;;;5056270;28;20063;-71
2024/01/08 02:32:36;;;;;;;20.80;7.57;;;5.40;70.00;;;;;;5053506;28;20059;-70
2024/01/08 02:35:06;;;;;;;30.95;9.23;;;5.40;70.00;;;;;;5050931;28;20064;-69
2024/01/08 02:37:34;;;;;;;17.83;8.43;;;5.40;70.00;;;;;;5048612;28;20777;-68
2024/01/08 02:40:06;;;;;;;27.50;8.35;;;5.50;70.10;;;;;;5055707;28;20068;-69
2024/01/08 02:42:35;;;;;;;29.83;9.35;;;5.50;70.10;;;;;;5049534;28;20041;-69
2024/01/08 02:45:03;;;;;;;24.15;9.82;;;5.40;70.00;;;;;;5047861;28;20123;-69
2024/01/08 02:47:33;;;;;;;22.13;9.05;;;5.40;70.70;;;;;;5056139;28;20064;-70
2024/01/08 02:50:01;;;;;;;28.45;11.77;;;5.40;69.90;;;;;;5047676;28;20075;-70
2024/01/08 02:52:29;;;;;;;31.13;9.27;;;5.40;70.00;;;;;;5049284;28;20127;-69
2024/01/08 02:54:58;;;;;;;18.67;8.75;;;5.40;69.90;;;;;;5053343;28;20075;-70
2024/01/08 02:57:28;;;;;;;34.15;11.98;;;5.40;70.70;;;;;;5045768;28;20125;-69
2024/01/08 02:59:57;;;;;;;46.78;11.18;;;5.40;69.90;;;;;;5045269;28;20088;-70
2024/01/08 03:02:26;;;;;;;24.33;9.27;;;5.40;70.00;;;;;;5053290;28;20053;-70
2024/01/08 03:04:55;;;;;;;30.60;9.38;;;5.40;70.00;;;;;;5048463;28;20067;-69
2024/01/08 03:07:23;;;;;;;32.05;9.55;;;5.40;69.90;;;;;;5046476;28;20056;-70
2024/01/08 03:09:56;;;;;;;21.02;7.90;;;5.40;69.80;;;;;;5043823;28;20055;-70
2024/01/08 03:12:25;;;;;;;15.93;7.78;;;5.40;69.90;;;;;;5043177;28;20053;-70
2024/01/08 03:14:55;;;;;;;25.67;10.15;;;5.40;70.70;;;;;;5041046;28;20048;-70
2024/01/08 03:17:23;;;;;;;30.63;9.50;;;5.40;70.00;;;;;;5045444;28;20541;-70
2024/01/08 03:19:51;;;;;;;17.90;8.70;;;5.40;70.10;;;;;;5034459;28;20056;-69
2024/01/08 03:22:20;;;;;;;32.60;10.10;;;5.40;70.10;;;;;;5043362;28;20441;-69
2024/01/08 03:24:48;;;;;;;26.23;7.00;;;5.30;69.80;;;;;;5059429;28;20064;-70
2024/01/08 03:27:16;;;;;;;21.05;9.27;;;5.30;69.90;;;;;;5053551;28;20060;-71
2024/01/08 03:29:45;;;;;;;30.13;10.35;;;5.30;69.80;;;;;;5051014;28;20064;-69
2024/01/08 03:32:14;;;;;;;26.27;9.27;;;5.30;70.00;;;;;;5044587;28;20572;-70
2024/01/08 03:34:43;;;;;;;33.47;9.20;;;5.30;70.10;;;;;;5052481;28;20052;-69
2024/01/08 03:37:11;;;;;;;20.50;6.07;;;5.30;69.80;;;;;;5047590;28;20230;-70
2024/01/08 03:39:40;;;;;;;20.38;9.98;;;5.30;69.80;;;;;;5048262;28;20413;-70
2024/01/08 03:42:08;;;;;;;25.42;9.65;;;5.30;69.80;;;;;;5060868;28;20682;-69
2024/01/08 03:44:37;;;;;;;28.08;10.25;;;5.30;69.80;;;;;;5054612;28;20065;-69
2024/01/08 03:47:05;;;;;;;23.33;7.50;;;5.20;69.70;;;;;;5061094;28;20418;-70
2024/01/08 03:49:35;;;;;;;24.00;8.10;;;5.20;69.60;;;;;;5050710;28;20052;-68
2024/01/08 03:52:04;;;;;;;31.77;7.57;;;5.20;69.60;;;;;;5045667;28;20049;-70
2024/01/08 03:54:32;;;;;;;75.10;18.70;;;5.20;69.60;;;;;;5049138;28;20049;-70
2024/01/08 03:57:00;;;;;;;23.80;9.15;;;5.10;69.60;;;;;;5058890;28;20512;-69
2024/01/08 03:59:28;;;;;;;22.45;8.35;;;5.10;69.70;;;;;;5056104;28;20524;-69
2024/01/08 04:01:57;;;;;;;24.60;9.60;;;5.10;69.70;;;;;;5044826;28;21005;-69
2024/01/08 04:04:25;;;;;;;39.63;9.48;;;5.10;69.70;;;;;;5056204;28;20059;-70
2024/01/08 04:06:54;;;;;;;31.63;11.38;;;5.10;69.60;;;;;;5054001;28;20555;-69
2024/01/08 04:09:23;;;;;;;19.83;8.52;;;5.10;69.50;;;;;;5058385;28;20683;-70
2024/01/08 04:11:51;;;;;;;48.47;12.93;;;5.00;69.40;;;;;;5037376;28;20098;-70
2024/01/08 04:14:20;;;;;;;31.05;12.70;;;5.00;69.50;;;;;;5058534;28;20060;-69
2024/01/08 04:16:48;;;;;;;23.73;10.95;;;5.00;69.50;;;;;;5053399;28;20092;-69
2024/01/08 04:19:16;;;;;;;48.35;11.95;;;5.00;69.50;;;;;;5053706;28;20176;-71
2024/01/08 04:21:45;;;;;;;28.33;10.02;;;5.00;69.40;;;;;;5048139;28;20053;-70
2024/01/08 04:24:16;;;;;;;33.00;10.00;;;5.00;69.40;;;;;;5058340;28;20056;-70
2024/01/08 04:26:45;;;;;;;33.97;9.20;;;5.00;69.50;;;;;;5045645;28;20414;-70
2024/01/08 04:29:13;;;;;;;42.25;10.30;;;4.90;70.30;;;;;;5046310;28;20134;-70
2024/01/08 04:31:41;;;;;;;24.35;11.07;;;5.00;69.70;;;;;;5049218;28;20055;-71
2024/01/08 04:34:10;;;;;;;31.42;10.95;;;4.90;69.70;;;;;;5048640;28;20136;-70
2024/01/08 04:36:42;;;;;;;35.67;10.25;;;5.00;69.80;;;;;;5048815;28;20155;-70
2024/01/08 04:39:10;;;;;;;32.28;11.45;;;5.00;70.50;;;;;;5054588;28;20049;-71
2024/01/08 04:41:40;;;;;;;28.25;9.05;;;5.00;69.80;;;;;;5036894;28;20087;-70
2024/01/08 04:44:09;;;;;;;32.40;10.93;;;5.10;69.70;;;;;;5041534;28;20420;-69
2024/01/08 04:46:38;;;;;;;35.83;9.60;;;5.10;69.80;;;;;;5045865;28;20138;-70
2024/01/08 04:49:06;;;;;;;27.83;11.23;;;5.10;69.70;;;;;;5046619;28;20056;-69
2024/01/08 04:51:35;;;;;;;32.05;13.45;;;5.10;69.60;;;;;;5040805;28;20060;-69
2024/01/08 04:54:04;;;;;;;23.33;10.63;;;5.10;69.60;;;;;;5038309;28;20060;-70
2024/01/08 04:56:33;;;;;;;38.78;11.38;;;5.10;69.60;;;;;;5050288;28;20468;-68
2024/01/08 04:59:03;;;;;;;24.35;10.50;;;5.10;69.50;;;;;;5048367;28;20064;-69
2024/01/08 05:01:37;;;;;;;45.22;11.15;;;5.10;69.50;;;;;;5043579;28;20075;-69
2024/01/08 05:04:06;;;;;;;39.83;11.43;;;5.00;69.30;;;;;;5038249;28;20053;-68
2024/01/08 05:06:39;;;;;;;23.92;9.68;;;5.00;69.30;;;;;;5047753;28;20136;-70
2024/01/08 05:09:08;;;;;;;27.60;8.63;;;5.00;69.30;;;;;;5044798;28;20151;-70
2024/01/08 05:11:42;;;;;;;30.90;12.45;;;5.00;69.30;;;;;;5036109;28;20087;-71
2024/01/08 05:14:16;;;;;;;20.65;9.02;;;5.00;69.30;;;;;;5058008;28;20094;-70
2024/01/08 05:16:44;;;;;;;27.58;10.77;;;5.00;69.30;;;;;;5048440;28;20061;-70
2024/01/08 05:19:12;;;;;;;44.05;11.85;;;5.00;69.20;;;;;;5052995;28;20061;-69
2024/01/08 05:21:41;;;;;;;20.15;9.13;;;4.90;69.30;;;;;;5040387;28;20044;-71
2024/01/08 05:24:09;;;;;;;31.05;10.57;;;4.90;69.30;;;;;;5053234;28;20056;-70
2024/01/08 05:26:37;;;;;;;29.13;9.82;;;4.90;69.30;;;;;;5043910;28;20049;-69
2024/01/08 05:29:06;;;;;;;33.63;10.88;;;4.90;69.30;;;;;;5035292;28;20052;-69
2024/01/08 05:31:36;;;;;;;27.02;10.18;;;4.90;69.20;;;;;;5041485;28;20118;-68
2024/01/08 05:34:05;;;;;;;36.85;13.00;;;4.90;69.20;;;;;;5046601;28;20052;-69
2024/01/08 05:36:34;;;;;;;23.30;8.32;;;4.90;69.30;;;;;;5051729;28;20148;-70
2024/01/08 05:39:02;;;;;;;70.88;10.35;;;4.90;69.50;;;;;;5043061;28;20098;-71
2024/01/08 05:41:30;;;;;;;34.38;11.73;;;4.90;69.40;;;;;;5044734;28;20428;-70
2024/01/08 05:43:59;;;;;;;49.53;8.77;;;4.90;69.40;;;;;;5039411;28;20068;-69
2024/01/08 05:46:29;;;;;;;23.48;10.48;;;4.90;69.50;;;;;;5042624;28;20140;-70
2024/01/08 05:49:00;;;;;;;25.67;10.02;;;4.90;69.50;;;;;;5039804;28;20076;-70
2024/01/08 05:51:29;;;;;;;32.90;9.65;;;4.90;70.10;;;;;;5043230;28;20460;-71
2024/01/08 05:53:57;;;;;;;25.67;11.13;;;4.90;69.40;;;;;;5033516;28;20115;-70
2024/01/08 05:56:26;;;;;;;36.95;11.18;;;4.90;69.40;;;;;;5041044;28;20698;-69
2024/01/08 05:58:54;;;;;;;32.03;8.73;;;4.90;69.40;;;;;;5046547;28;20064;-71
2024/01/08 06:01:23;;;;;;;26.30;9.63;;;4.90;69.50;;;;;;5044928;28;20158;-70
2024/01/08 06:03:51;;;;;;;23.05;9.23;;;4.90;69.40;;;;;;5030865;28;20099;-70
2024/01/08 06:06:21;;;;;;;31.25;12.07;;;4.90;70.00;;;;;;5044139;28;20083;-65
2024/01/08 06:08:50;;;;;;;33.60;10.65;;;4.90;69.30;;;;;;5022526;28;20538;-65
2024/01/08 06:11:18;;;;;;;29.88;11.52;;;4.90;69.40;;;;;;5039498;28;20056;-66
2024/01/08 06:13:46;;;;;;;27.17;7.82;;;4.90;69.40;;;;;;5038231;28;20052;-64
2024/01/08 06:16:16;;;;;;;26.55;9.35;;;4.90;69.40;;;;;;5035561;28;20052;-65
2024/01/08 06:18:45;;;;;;;27.42;7.88;;;4.90;69.30;;;;;;5035538;28;20076;-65
2024/01/08 06:21:14;;;;;;;58.63;17.77;;;4.90;69.40;;;;;;5037236;28;20142;-65
2024/01/08 06:23:44;;;;;;;20.42;8.15;;;5.00;69.50;;;;;;5019376;28;20053;-64
2024/01/08 06:26:15;;;;;;;33.58;9.50;;;5.00;69.40;;;;;;5042839;28;20059;-60
2024/01/08 06:28:44;;;;;;;28.05;7.97;;;5.00;69.30;;;;;;5044559;28;20648;-62
2024/01/08 06:31:13;;;;;;;36.08;11.65;;;4.90;69.20;;;;;;5041333;28;20071;-62
2024/01/08 06:33:42;;;;;;;19.83;8.07;;;4.90;69.30;;;;;;5034954;28;20067;-60
2024/01/08 06:36:10;;;;;;;26.35;7.78;;;4.90;69.30;;;;;;5045068;28;20645;-61
2024/01/08 06:38:39;;;;;;;23.42;10.65;;;4.90;69.40;;;;;;5038703;28;20057;-62
2024/01/08 06:41:09;;;;;;;18.70;8.27;;;4.90;69.40;;;;;;5037908;28;20053;-61
2024/01/08 06:43:38;;;;;;;15.13;7.78;;;4.90;69.40;;;;;;5037462;28;20071;-60
2024/01/08 06:46:07;;;;;;;29.17;10.95;;;4.90;69.30;;;;;;5045626;28;20478;-60
2024/01/08 06:48:36;;;;;;;19.33;10.32;;;4.90;69.40;;;;;;5048251;28;20711;-72
2024/01/08 06:51:05;;;;;;;31.50;9.15;;;4.90;69.30;;;;;;5047243;28;20064;-70
2024/01/08 06:53:33;;;;;;;23.95;8.30;;;4.90;69.40;;;;;;5048349;28;20052;-70
2024/01/08 06:56:02;;;;;;;19.52;7.93;;;4.90;70.00;;;;;;5045090;28;20746;-71
2024/01/08 06:58:31;;;;;;;24.40;8.68;;;4.90;69.20;;;;;;5051387;28;20045;-68
2024/01/08 07:01:00;;;;;;;33.92;9.85;;;4.90;69.20;;;;;;5053403;28;20075;-68
2024/01/08 07:03:28;;;;;;;17.90;7.50;;;4.90;69.10;;;;;;5047925;28;20056;-69
2024/01/08 07:05:56;;;;;;;21.95;9.35;;;4.90;69.10;;;;;;5044397;28;20680;-69
2024/01/08 07:08:25;;;;;;;22.38;8.43;;;4.90;69.00;;;;;;5035685;28;20064;-69
2024/01/08 07:10:53;;;;;;;27.75;9.88;;;4.90;69.10;;;;;;5049269;28;20056;-68
2024/01/08 07:13:22;;;;;;;19.85;7.95;;;4.90;69.20;;;;;;5046617;28;20064;-69
2024/01/08 07:15:52;;;;;;;24.67;9.95;;;4.90;70.00;;;;;;5030995;28;20068;-68
2024/01/08 07:18:20;;;;;;;21.88;8.00;;;4.90;69.20;;;;;;5047235;28;20048;-69
2024/01/08 07:20:49;;;;;;;21.45;8.40;;;5.00;69.20;;;;;;5050031;28;20084;-69
2024/01/08 07:23:18;;;;;;;37.97;8.43;;;5.00;69.20;;;;;;5040176;28;20068;-69
2024/01/08 07:25:46;;;;;;;22.83;10.82;;;5.00;69.20;;;;;;5045472;28;20052;-69
2024/01/08 07:28:16;;;;;;;30.85;10.90;;;5.00;69.10;;;;;;5044749;28;20048;-70
2024/01/08 07:30:44;;;;;;;49.75;7.57;;;5.00;69.10;;;;;;5039840;28;20048;-72
2024/01/08 07:33:15;;;;;;;20.15;8.95;;;5.00;69.00;;;;;;5050445;28;20497;-71
2024/01/08 07:35:43;;;;;;;28.05;9.05;;;5.00;69.10;;;;;;5031172;28;20056;-70
2024/01/08 07:38:12;;;;;;;34.13;10.82;;;5.10;69.20;;;;;;5045758;28;20048;-69
2024/01/08 07:40:41;;;;;;;28.38;8.77;;;5.10;69.20;;;;;;5047998;28;20045;-71
2024/01/08 07:43:09;;;;;;;22.00;9.52;;;5.10;69.20;;;;;;5042723;28;20070;-71
2024/01/08 07:45:38;;;;;;;22.50;7.35;;;5.10;69.20;;;;;;5044868;28;20056;-70
2024/01/08 07:48:07;;;;;;;25.00;9.00;;;5.20;69.30;;;;;;5057498;28;20130;-71
2024/01/08 07:50:37;;;;;;;21.83;7.47;;;5.20;69.20;;;;;;5051166;28;20056;-71
2024/01/08 07:53:05;;;;;;;21.45;9.20;;;5.20;69.20;;;;;;5040976;28;20069;-71
2024/01/08 07:55:33;;;;;;;18.42;7.72;;;5.20;69.00;;;;;;5045512;28;20056;-60
2024/01/08 07:58:02;;;;;;;24.33;8.77;;;5.30;69.10;;;;;;5045872;28;20060;-62
2024/01/08 08:00:30;;;;;;;23.27;8.38;;;5.30;69.20;;;;;;5044685;28;20092;-59
2024/01/08 08:02:58;;;;;;;22.05;7.55;;;5.30;69.30;;;;;;5037233;28;20067;-59
2024/01/08 08:05:27;;;;;;;25.17;8.82;;;5.30;69.30;;;;;;5043582;28;20070;-60
2024/01/08 08:08:00;;;;;;;22.13;9.30;;;5.40;69.50;;;;;;5037467;28;20086;-61
2024/01/08 08:10:28;;;;;;;28.55;9.90;;;5.40;69.60;;;;;;5038865;28;20155;-61
2024/01/08 08:12:57;;;;;;;15.68;7.45;;;5.50;69.50;;;;;;5046778;28;20155;-60
2024/01/08 08:15:25;;;;;;;20.48;7.80;;;5.50;69.40;;;;;;5049510;28;20045;-61
2024/01/08 08:17:54;;;;;;;19.23;6.93;;;5.50;69.30;;;;;;5036550;28;20079;-60
2024/01/08 08:20:22;;;;;;;27.60;9.15;;;5.50;69.20;;;;;;5055785;28;20506;-59
2024/01/08 08:22:51;;;;;;;26.92;10.18;;;5.50;69.30;;;;;;5046134;28;20053;-61
2024/01/08 08:25:22;;;;;;;21.88;8.93;;;5.50;69.40;;;;;;5051978;28;20085;-60
2024/01/08 08:27:50;;;;;;;23.23;8.00;;;5.50;69.30;;;;;;5042698;28;20065;-60
2024/01/08 08:30:20;;;;;;;21.13;8.52;;;5.60;69.40;;;;;;5045028;28;20049;-61
2024/01/08 08:32:50;;;;;;;20.92;7.88;;;5.60;69.40;;;;;;5053680;28;20616;-61
2024/01/08 08:35:19;;;;;;;17.13;7.05;;;5.60;69.40;;;;;;5045793;28;20064;-60
2024/01/08 08:37:47;;;;;;;19.42;8.35;;;5.70;69.30;;;;;;5046009;28;20048;-60
2024/01/08 08:40:23;;;;;;;39.17;8.93;;;5.70;69.20;;;;;;5054238;28;20372;-61
2024/01/08 08:42:52;;;;;;;21.52;8.48;;;5.70;69.30;;;;;;5041763;28;20068;-62
2024/01/08 08:45:20;;;;;;;16.45;6.57;;;5.70;69.20;;;;;;5045536;28;20083;-59
2024/01/08 08:47:49;;;;;;;29.55;7.80;;;5.70;69.20;;;;;;5043975;28;20053;-57
2024/01/08 08:50:19;;;;;;;20.25;7.63;;;5.80;69.10;;;;;;5053557;28;20063;-61
2024/01/08 08:52:47;;;;;;;23.02;7.85;;;5.80;69.20;;;;;;5037667;28;20059;-62
2024/01/08 08:55:15;;;;;;;21.88;7.85;;;5.80;69.30;;;;;;5054298;28;20048;-64
2024/01/08 08:57:45;;;;;;;18.27;8.45;;;5.80;69.40;;;;;;5037145;28;20696;-63
2024/01/08 09:00:14;;;;;;;20.67;7.07;;;5.90;69.30;;;;;;5046202;28;20056;-62
2024/01/08 09:02:49;;;;;;;33.17;8.00;;;5.90;69.40;;;;;;5050997;28;20067;-63
2024/01/08 09:05:18;;;;;;;23.55;9.30;;;6.00;69.40;;;;;;5051780;28;20048;-62
2024/01/08 09:07:59;;;;;;;20.77;8.13;;;6.00;69.40;;;;;;5035481;28;20051;-63
2024/01/08 09:10:28;;;;;;;18.08;7.70;;;6.00;69.30;;;;;;5048939;28;20069;-64
2024/01/08 09:12:57;;;;;;;17.40;6.72;;;6.00;69.20;;;;;;5049188;28;20060;-59
2024/01/08 09:15:26;;;;;;;17.45;7.05;;;6.00;69.00;;;;;;5051938;28;20830;-61
2024/01/08 09:17:54;;;;;;;21.58;8.23;;;6.00;68.40;;;;;;5042024;28;20128;-63
2024/01/08 09:20:22;;;;;;;22.15;7.30;;;6.00;68.80;;;;;;5047374;28;20056;-61
2024/01/08 09:22:51;;;;;;;17.85;7.22;;;5.90;68.50;;;;;;5042812;28;20054;-61
2024/01/08 09:25:20;;;;;;;22.70;8.85;;;6.00;68.90;;;;;;5049666;28;20119;-65
2024/01/08 09:27:48;;;;;;;16.35;5.95;;;6.00;68.80;;;;;;5046113;28;20835;-63
2024/01/08 09:30:19;;;;;;;23.05;6.88;;;6.00;69.00;;;;;;5045418;28;20065;-63
2024/01/08 09:32:47;;;;;;;25.80;7.22;;;6.00;68.80;;;;;;5046048;28;20059;-64
2024/01/08 09:35:16;;;;;;;19.95;7.60;;;6.00;68.70;;;;;;5046829;28;20049;-63
2024/01/08 09:37:45;;;;;;;21.63;7.95;;;6.10;68.90;;;;;;5039248;28;20115;-63
2024/01/08 09:40:13;;;;;;;23.80;8.13;;;6.10;68.80;;;;;;5047416;28;20053;-63
2024/01/08 09:42:41;;;;;;;16.50;6.65;;;6.10;68.70;;;;;;5052438;28;20052;-64
2024/01/08 09:45:11;;;;;;;17.20;7.40;;;6.10;68.70;;;;;;5043013;28;20057;-67
2024/01/08 09:47:42;;;;;;;24.40;9.23;;;6.20;68.90;;;;;;5037513;28;20079;-63
2024/01/08 09:50:14;;;;;;;18.65;7.35;;;6.20;68.90;;;;;;5050418;28;20119;-63
2024/01/08 09:52:45;;;;;;;23.92;7.90;;;6.20;68.70;;;;;;5052272;28;20067;-65
2024/01/08 09:55:14;;;;;;;29.10;6.85;;;6.20;68.70;;;;;;5050167;28;20851;-64
2024/01/08 09:57:42;;;;;;;22.92;6.90;;;6.20;68.60;;;;;;5046937;28;20064;-70
2024/01/08 10:00:13;;;;;;;16.52;6.75;;;6.20;68.50;;;;;;5047658;28;20498;-65
2024/01/08 10:02:43;;;;;;;15.38;6.65;;;6.20;68.60;;;;;;5043033;28;20236;-64
2024/01/08 10:05:12;;;;;;;18.88;6.20;;;6.20;68.60;;;;;;5052600;28;20060;-65
2024/01/08 10:07:40;;;;;;;17.02;7.50;;;6.20;68.70;;;;;;5043221;28;20084;-63
2024/01/08 10:10:09;;;;;;;17.77;6.93;;;6.20;68.50;;;;;;5035163;28;20725;-63
2024/01/08 10:12:38;;;;;;;16.70;6.30;;;6.20;68.60;;;;;;5025823;28;20139;-66
2024/01/08 10:15:10;;;;;;;24.98;7.45;;;6.20;68.40;;;;;;5049376;28;20332;-61
2024/01/08 10:17:39;;;;;;;19.17;8.40;;;6.10;68.50;;;;;;5050184;28;20087;-63
2024/01/08 10:20:10;;;;;;;29.10;8.80;;;6.00;68.50;;;;;;5048963;28;20075;-64
2024/01/08 10:22:40;;;;;;;19.35;8.48;;;6.00;69.00;;;;;;5044185;28;20131;-63
2024/01/08 10:25:09;;;;;;;30.40;11.23;;;5.90;69.30;;;;;;5031013;28;20053;-61
2024/01/08 10:27:38;;;;;;;18.10;8.35;;;5.90;69.40;;;;;;5040992;28;20049;-64
2024/01/08 10:30:08;;;;;;;19.25;8.00;;;5.90;69.30;;;;;;5053673;28;20057;-63
2024/01/08 10:32:38;;;;;;;19.48;7.50;;;5.80;69.50;;;;;;5046969;28;20087;-62
2024/01/08 10:35:09;;;;;;;23.75;9.43;;;5.80;69.60;;;;;;5046135;28;20053;-61
2024/01/08 10:37:40;;;;;;;24.40;10.02;;;5.80;69.90;;;;;;5051170;28;20098;-62
2024/01/08 10:40:13;;;;;;;17.67;8.10;;;5.90;70.10;;;;;;5045804;28;20048;-67
2024/01/08 10:42:44;;;;;;;29.27;8.95;;;5.90;70.20;;;;;;5043440;28;20152;-67
2024/01/08 10:45:13;;;;;;;27.73;9.48;;;6.00;70.10;;;;;;5043608;28;20064;-67
2024/01/08 10:47:49;;;;;;;27.52;11.13;;;6.00;69.90;;;;;;5044878;28;20056;-65
2024/01/08 10:50:21;;;;;;;26.13;8.77;;;6.00;69.90;;;;;;5045982;28;20066;-66
2024/01/08 10:52:55;;;;;;;27.85;10.13;;;6.10;69.70;;;;;;5048202;28;20064;-65
2024/01/08 10:55:24;;;;;;;34.83;9.55;;;6.10;69.90;;;;;;5042539;28;20128;-62
2024/01/08 10:57:58;;;;;;;57.42;16.10;;;6.10;69.70;;;;;;5040799;28;20523;-62
2024/01/08 11:00:27;;;;;;;36.88;8.07;;;6.10;69.80;;;;;;5052968;28;20222;-63
2024/01/08 11:02:56;;;;;;;24.77;9.48;;;6.20;70.00;;;;;;5043252;28;20056;-62
2024/01/08 11:05:28;;;;;;;35.92;9.07;;;6.30;70.20;;;;;;5046238;28;20048;-63
2024/01/08 11:07:58;;;;;;;22.88;9.32;;;6.30;69.90;;;;;;5026555;28;20436;-62
2024/01/08 11:10:28;;;;;;;24.42;10.13;;;6.30;69.80;;;;;;5044308;28;20047;-62
2024/01/08 11:12:57;;;;;;;38.90;12.15;;;6.20;69.20;;;;;;5047751;28;20075;-63
2024/01/08 11:15:27;;;;;;;45.50;13.18;;;6.20;69.00;;;;;;5040743;28;20064;-63
2024/01/08 11:17:58;;;;;;;17.45;7.57;;;6.10;69.10;;;;;;5034891;28;20517;-64
2024/01/08 11:20:45;;;;;;;32.63;9.02;;;6.20;69.70;;;;;;5051434;28;20626;-64
2024/01/08 11:23:38;;;;;;;28.48;9.20;;;6.20;69.80;;;;;;5042843;28;20044;-62
2024/01/08 11:26:15;;;;;;;56.33;14.13;;;6.30;70.90;;;;;;5042245;28;20064;-64
2024/01/08 11:28:43;;;;;;;29.58;10.15;;;6.40;70.20;;;;;;5050134;28;20649;-65
2024/01/08 11:31:51;;;;;;;29.05;9.70;;;6.40;70.00;;;;;;5045254;28;20060;-64
2024/01/08 11:34:55;;;;;;;29.98;9.15;;;6.50;69.90;;;;;;5046695;28;20250;-66
2024/01/08 11:37:33;;;;;;;28.02;11.27;;;6.50;69.80;;;;;;5044631;28;20048;-69
2024/01/08 11:40:04;;;;;;;49.78;15.13;;;6.50;69.70;;;;;;5038952;28;20759;-67
2024/01/08 11:42:32;;;;;;;18.67;10.18;;;6.60;69.80;;;;;;5038899;28;20053;-68
2024/01/08 11:45:02;;;;;;;25.58;8.40;;;6.70;69.90;;;;;;5038326;28;20056;-66
2024/01/08 11:47:31;;;;;;;43.60;11.15;;;6.70;69.60;;;;;;5047236;28;20060;-67
2024/01/08 11:50:00;;;;;;;36.95;12.18;;;6.70;69.50;;;;;;5033832;28;20064;-62
2024/01/08 11:52:32;;;;;;;28.30;9.45;;;6.80;70.30;;;;;;5045686;28;20076;-63
2024/01/08 11:55:00;;;;;;;23.42;9.25;;;6.90;69.70;;;;;;5046671;28;20057;-63
2024/01/08 11:57:29;;;;;;;30.65;9.65;;;7.00;69.50;;;;;;5052668;28;20057;-61
2024/01/08 11:59:57;;;;;;;29.45;11.02;;;7.00;69.40;;;;;;5039128;28;20056;-61
2024/01/08 12:02:27;;;;;;;32.75;8.93;;;7.10;69.30;;;;;;5051657;28;20067;-62
2024/01/08 12:04:56;;;;;;;27.10;10.20;;;7.20;69.20;;;;;;5048090;28;20112;-61
2024/01/08 12:07:26;;;;;;;25.55;7.72;;;7.30;69.10;;;;;;5046377;28;20060;-60
2024/01/08 12:09:57;;;;;;;18.20;8.93;;;7.40;68.80;;;;;;5032770;28;20689;-62
2024/01/08 12:12:26;;;;;;;22.30;8.77;;;7.50;68.50;;;;;;5038207;28;20132;-62
2024/01/08 12:14:55;;;;;;;30.13;9.10;;;7.60;68.50;;;;;;5042690;28;20048;-64
2024/01/08 12:17:24;;;;;;;32.50;9.65;;;7.60;68.40;;;;;;5051972;28;20084;-61
2024/01/08 12:19:54;;;;;;;32.03;8.75;;;7.70;68.20;;;;;;5042961;28;20650;-62
2024/01/08 12:22:26;;;;;;;22.70;9.30;;;7.80;67.90;;;;;;5047536;28;20087;-62
2024/01/08 12:24:57;;;;;;;23.13;10.18;;;7.80;67.80;;;;;;5039741;28;20134;-62
2024/01/08 12:27:30;;;;;;;20.30;8.25;;;7.80;67.80;;;;;;5052065;28;20057;-61
2024/01/08 12:29:59;;;;;;;26.25;9.70;;;7.80;67.60;;;;;;5047243;28;20063;-61
2024/01/08 12:32:29;;;;;;;28.00;10.55;;;7.70;68.40;;;;;;5051953;28;20502;-62
2024/01/08 12:35:00;;;;;;;38.72;10.43;;;7.70;67.80;;;;;;5047544;28;20060;-63
2024/01/08 12:37:32;;;;;;;20.52;9.60;;;7.80;67.80;;;;;;5035180;28;20534;-63
2024/01/08 12:40:04;;;;;;;36.28;13.40;;;7.80;67.70;;;;;;5049328;28;20567;-61
2024/01/08 12:42:35;;;;;;;24.85;9.10;;;7.80;67.70;;;;;;5052274;28;20131;-61
2024/01/08 12:45:07;;;;;;;38.22;12.68;;;7.80;67.50;;;;;;5052660;28;20145;-63
2024/01/08 12:47:35;;;;;;;24.40;8.90;;;7.80;67.40;;;;;;5053693;28;20052;-64
2024/01/08 12:50:05;;;;;;;38.40;13.02;;;7.80;67.50;;;;;;5033790;28;20037;-65
2024/01/08 12:52:33;;;;;;;40.70;14.75;;;7.80;67.50;;;;;;5038528;28;20160;-64
2024/01/08 12:55:03;;;;;;;31.70;13.13;;;7.80;67.30;;;;;;5046365;28;20052;-64